sensor_id;sensor_type;location;lat;lon;timestamp;temperature;humidity
5723;DHT22;2886;49.722;8.612;2023-04-16T00:02:23;8.40;99.90
5723;DHT22;2886;49.722;8.612;2023-04-16T00:04:48;8.40;99.90
5723;DHT22;2886;49.722;8.612;2023-04-16T00:07:14;8.40;99.90
5723;DHT22;2886;49.722;8.612;2023-04-16T00:09:40;8.40;99.90
5723;DHT22;2886;49.722;8.612;2023-04-16T00:12:05;8.30;99.90
5723;DHT22;2886;49.722;8.612;2023-04-16T00:14:31;8.40;99.90
5723;DHT22;2886;49.722;8.612;2023-04-16T00:16:58;8.40;99.90
5723;DHT22;2886;49.722;8.612;2023-04-16T00:19:23;8.40;99.90
5723;DHT22;2886;49.722;8.612;2023-04-16T00:21:49;8.40;99.90
5723;DHT22;2886;49.722;8.612;2023-04-16T00:24:15;8.30;99.90
5723;DHT22;2886;49.722;8.612;2023-04-16T00:26:41;8.30;99.90
5723;DHT22;2886;49.722;8.612;2023-04-16T00:29:09;8.30;99.90
5723;DHT22;2886;49.722;8.612;2023-04-16T00:38:05;8.40;99.90
5723;DHT22;2886;49.722;8.612;2023-04-16T00:40:30;8.40;99.90
5723;DHT22;2886;49.722;8.612;2023-04-16T00:42:57;8.30;99.90
5723;DHT22;2886;49.722;8.612;2023-04-16T00:45:22;8.30;99.90
5723;DHT22;2886;49.722;8.612;2023-04-16T00:47:48;8.40;99.90
5723;DHT22;2886;49.722;8.612;2023-04-16T00:50:14;8.40;99.90
5723;DHT22;2886;49.722;8.612;2023-04-16T00:52:40;8.40;99.90
5723;DHT22;2886;49.722;8.612;2023-04-16T00:55:06;8.40;99.90
5723;DHT22;2886;49.722;8.612;2023-04-16T00:57:32;8.40;99.90
5723;DHT22;2886;49.722;8.612;2023-04-16T00:59:58;8.40;99.90
5723;DHT22;2886;49.722;8.612;2023-04-16T01:02:30;8.40;99.90
5723;DHT22;2886;49.722;8.612;2023-04-16T01:04:55;8.40;99.90
5723;DHT22;2886;49.722;8.612;2023-04-16T01:10:27;8.40;99.90
5723;DHT22;2886;49.722;8.612;2023-04-16T01:12:53;8.40;99.90
5723;DHT22;2886;49.722;8.612;2023-04-16T01:15:20;8.30;99.90
5723;DHT22;2886;49.722;8.612;2023-04-16T01:17:45;8.30;99.90
5723;DHT22;2886;49.722;8.612;2023-04-16T01:20:12;8.30;99.90
5723;DHT22;2886;49.722;8.612;2023-04-16T01:22:38;8.30;99.90
5723;DHT22;2886;49.722;8.612;2023-04-16T01:25:04;8.30;99.90
5723;DHT22;2886;49.722;8.612;2023-04-16T01:27:29;8.30;99.90
5723;DHT22;2886;49.722;8.612;2023-04-16T01:29:55;8.30;99.90
5723;DHT22;2886;49.722;8.612;2023-04-16T01:32:21;8.30;99.90
5723;DHT22;2886;49.722;8.612;2023-04-16T01:34:46;8.30;99.90
5723;DHT22;2886;49.722;8.612;2023-04-16T01:37:12;8.30;99.90
5723;DHT22;2886;49.722;8.612;2023-04-16T01:39:38;8.30;99.90
5723;DHT22;2886;49.722;8.612;2023-04-16T01:42:03;8.30;99.90
5723;DHT22;2886;49.722;8.612;2023-04-16T01:44:29;8.30;99.90
5723;DHT22;2886;49.722;8.612;2023-04-16T01:46:55;8.30;99.90
5723;DHT22;2886;49.722;8.612;2023-04-16T01:49:21;8.30;99.90
5723;DHT22;2886;49.722;8.612;2023-04-16T01:51:47;8.30;99.90
5723;DHT22;2886;49.722;8.612;2023-04-16T01:54:12;8.30;99.90
5723;DHT22;2886;49.722;8.612;2023-04-16T01:56:38;8.30;99.90
5723;DHT22;2886;49.722;8.612;2023-04-16T01:59:04;8.30;99.90
5723;DHT22;2886;49.722;8.612;2023-04-16T02:01:29;8.40;99.90
5723;DHT22;2886;49.722;8.612;2023-04-16T02:03:56;8.40;99.90
5723;DHT22;2886;49.722;8.612;2023-04-16T02:06:22;8.30;99.90
5723;DHT22;2886;49.722;8.612;2023-04-16T02:08:47;8.30;99.90
5723;DHT22;2886;49.722;8.612;2023-04-16T02:11:13;8.40;99.90
5723;DHT22;2886;49.722;8.612;2023-04-16T02:13:39;8.30;99.90
5723;DHT22;2886;49.722;8.612;2023-04-16T02:16:05;8.40;99.90
5723;DHT22;2886;49.722;8.612;2023-04-16T02:18:30;8.40;99.90
5723;DHT22;2886;49.722;8.612;2023-04-16T02:20:57;8.40;99.90
5723;DHT22;2886;49.722;8.612;2023-04-16T02:23:24;8.40;99.90
5723;DHT22;2886;49.722;8.612;2023-04-16T02:25:50;8.30;99.90
5723;DHT22;2886;49.722;8.612;2023-04-16T02:28:16;8.40;99.90
5723;DHT22;2886;49.722;8.612;2023-04-16T02:30:42;8.40;99.90
5723;DHT22;2886;49.722;8.612;2023-04-16T02:33:10;8.40;99.90
5723;DHT22;2886;49.722;8.612;2023-04-16T02:35:37;8.40;99.90
5723;DHT22;2886;49.722;8.612;2023-04-16T02:38:03;8.40;99.90
5723;DHT22;2886;49.722;8.612;2023-04-16T02:40:29;8.40;99.90
5723;DHT22;2886;49.722;8.612;2023-04-16T02:42:55;8.40;99.90
5723;DHT22;2886;49.722;8.612;2023-04-16T02:45:21;8.40;99.90
5723;DHT22;2886;49.722;8.612;2023-04-16T02:47:48;8.40;99.90
5723;DHT22;2886;49.722;8.612;2023-04-16T02:50:14;8.40;99.90
5723;DHT22;2886;49.722;8.612;2023-04-16T02:52:40;8.50;99.90
5723;DHT22;2886;49.722;8.612;2023-04-16T02:55:06;8.50;99.90
5723;DHT22;2886;49.722;8.612;2023-04-16T02:57:51;8.40;99.90
5723;DHT22;2886;49.722;8.612;2023-04-16T03:00:17;8.40;99.90
5723;DHT22;2886;49.722;8.612;2023-04-16T03:02:43;8.50;99.90
5723;DHT22;2886;49.722;8.612;2023-04-16T03:05:09;8.50;99.90
5723;DHT22;2886;49.722;8.612;2023-04-16T03:07:38;8.40;99.90
5723;DHT22;2886;49.722;8.612;2023-04-16T03:10:06;8.40;99.90
5723;DHT22;2886;49.722;8.612;2023-04-16T03:12:32;8.40;99.90
5723;DHT22;2886;49.722;8.612;2023-04-16T03:14:57;8.40;99.90
5723;DHT22;2886;49.722;8.612;2023-04-16T03:17:23;8.40;99.90
5723;DHT22;2886;49.722;8.612;2023-04-16T03:19:48;8.40;99.90
5723;DHT22;2886;49.722;8.612;2023-04-16T03:22:15;8.40;99.90
5723;DHT22;2886;49.722;8.612;2023-04-16T03:24:41;8.40;99.90
5723;DHT22;2886;49.722;8.612;2023-04-16T03:27:06;8.40;99.90
5723;DHT22;2886;49.722;8.612;2023-04-16T03:29:32;8.50;99.90
5723;DHT22;2886;49.722;8.612;2023-04-16T03:32:00;8.50;99.90
5723;DHT22;2886;49.722;8.612;2023-04-16T03:34:26;8.50;99.90
5723;DHT22;2886;49.722;8.612;2023-04-16T03:36:51;8.50;99.90
5723;DHT22;2886;49.722;8.612;2023-04-16T03:39:17;8.40;99.90
5723;DHT22;2886;49.722;8.612;2023-04-16T03:41:43;8.50;99.90
5723;DHT22;2886;49.722;8.612;2023-04-16T03:44:08;8.50;99.90
5723;DHT22;2886;49.722;8.612;2023-04-16T03:46:34;8.50;99.90
5723;DHT22;2886;49.722;8.612;2023-04-16T03:48:59;8.40;99.90
5723;DHT22;2886;49.722;8.612;2023-04-16T03:51:25;8.40;99.90
5723;DHT22;2886;49.722;8.612;2023-04-16T03:53:51;8.50;99.90
5723;DHT22;2886;49.722;8.612;2023-04-16T03:56:17;8.50;99.90
5723;DHT22;2886;49.722;8.612;2023-04-16T03:58:42;8.50;99.90
5723;DHT22;2886;49.722;8.612;2023-04-16T04:01:08;8.50;99.90
5723;DHT22;2886;49.722;8.612;2023-04-16T04:03:34;8.50;99.90
5723;DHT22;2886;49.722;8.612;2023-04-16T04:05:59;8.50;99.90
5723;DHT22;2886;49.722;8.612;2023-04-16T04:08:25;8.50;99.90
5723;DHT22;2886;49.722;8.612;2023-04-16T04:10:50;8.50;99.90
5723;DHT22;2886;49.722;8.612;2023-04-16T04:13:16;8.50;99.90
5723;DHT22;2886;49.722;8.612;2023-04-16T04:15:43;8.50;99.90
5723;DHT22;2886;49.722;8.612;2023-04-16T04:18:10;8.50;99.90
5723;DHT22;2886;49.722;8.612;2023-04-16T04:20:39;8.50;99.90
5723;DHT22;2886;49.722;8.612;2023-04-16T04:23:05;8.50;99.90
5723;DHT22;2886;49.722;8.612;2023-04-16T04:25:31;8.50;99.90
5723;DHT22;2886;49.722;8.612;2023-04-16T04:27:56;8.50;99.90
5723;DHT22;2886;49.722;8.612;2023-04-16T04:30:22;8.50;99.90
5723;DHT22;2886;49.722;8.612;2023-04-16T04:32:48;8.40;99.90
5723;DHT22;2886;49.722;8.612;2023-04-16T04:35:13;8.40;99.90
5723;DHT22;2886;49.722;8.612;2023-04-16T04:37:39;8.50;99.90
5723;DHT22;2886;49.722;8.612;2023-04-16T04:40:05;8.40;99.90
5723;DHT22;2886;49.722;8.612;2023-04-16T04:42:31;8.40;99.90
5723;DHT22;2886;49.722;8.612;2023-04-16T04:44:56;8.40;99.90
5723;DHT22;2886;49.722;8.612;2023-04-16T04:47:23;8.40;99.90
5723;DHT22;2886;49.722;8.612;2023-04-16T04:49:48;8.40;99.90
5723;DHT22;2886;49.722;8.612;2023-04-16T04:52:14;8.40;99.90
5723;DHT22;2886;49.722;8.612;2023-04-16T04:54:40;8.40;99.90
5723;DHT22;2886;49.722;8.612;2023-04-16T04:57:06;8.40;99.90
5723;DHT22;2886;49.722;8.612;2023-04-16T04:59:32;8.40;99.90
5723;DHT22;2886;49.722;8.612;2023-04-16T05:01:58;8.40;99.90
5723;DHT22;2886;49.722;8.612;2023-04-16T05:04:24;8.50;99.90
5723;DHT22;2886;49.722;8.612;2023-04-16T05:06:50;8.50;99.90
5723;DHT22;2886;49.722;8.612;2023-04-16T05:09:15;8.50;99.90
5723;DHT22;2886;49.722;8.612;2023-04-16T05:11:41;8.40;99.90
5723;DHT22;2886;49.722;8.612;2023-04-16T05:14:07;8.50;99.90
5723;DHT22;2886;49.722;8.612;2023-04-16T05:16:36;8.40;99.90
5723;DHT22;2886;49.722;8.612;2023-04-16T05:19:02;8.40;99.90
5723;DHT22;2886;49.722;8.612;2023-04-16T05:21:29;8.50;99.90
5723;DHT22;2886;49.722;8.612;2023-04-16T05:23:55;8.50;99.90
5723;DHT22;2886;49.722;8.612;2023-04-16T05:26:20;8.50;99.90
5723;DHT22;2886;49.722;8.612;2023-04-16T05:28:47;8.50;99.90
5723;DHT22;2886;49.722;8.612;2023-04-16T05:31:12;8.50;99.90
5723;DHT22;2886;49.722;8.612;2023-04-16T05:33:38;8.60;99.90
5723;DHT22;2886;49.722;8.612;2023-04-16T05:36:04;8.50;99.90
5723;DHT22;2886;49.722;8.612;2023-04-16T05:38:29;8.60;99.90
5723;DHT22;2886;49.722;8.612;2023-04-16T05:40:56;8.60;99.90
5723;DHT22;2886;49.722;8.612;2023-04-16T05:43:22;8.60;99.90
5723;DHT22;2886;49.722;8.612;2023-04-16T05:45:47;8.60;99.90
5723;DHT22;2886;49.722;8.612;2023-04-16T05:48:13;8.60;99.90
5723;DHT22;2886;49.722;8.612;2023-04-16T05:50:39;8.60;99.90
5723;DHT22;2886;49.722;8.612;2023-04-16T05:53:06;8.60;99.90
5723;DHT22;2886;49.722;8.612;2023-04-16T05:55:32;8.60;99.90
5723;DHT22;2886;49.722;8.612;2023-04-16T05:57:58;8.60;99.90
5723;DHT22;2886;49.722;8.612;2023-04-16T06:00:24;8.60;99.90
5723;DHT22;2886;49.722;8.612;2023-04-16T06:02:50;8.60;99.90
5723;DHT22;2886;49.722;8.612;2023-04-16T06:05:16;8.70;99.90
5723;DHT22;2886;49.722;8.612;2023-04-16T06:07:41;8.60;99.90
5723;DHT22;2886;49.722;8.612;2023-04-16T06:10:07;8.70;99.90
5723;DHT22;2886;49.722;8.612;2023-04-16T06:12:33;8.60;99.90
5723;DHT22;2886;49.722;8.612;2023-04-16T06:15:04;8.60;99.90
5723;DHT22;2886;49.722;8.612;2023-04-16T06:17:30;8.70;99.90
5723;DHT22;2886;49.722;8.612;2023-04-16T06:19:55;8.60;99.90
5723;DHT22;2886;49.722;8.612;2023-04-16T06:22:21;8.60;99.90
5723;DHT22;2886;49.722;8.612;2023-04-16T06:24:47;8.60;99.90
5723;DHT22;2886;49.722;8.612;2023-04-16T06:27:12;8.60;99.90
5723;DHT22;2886;49.722;8.612;2023-04-16T06:29:39;8.60;99.90
5723;DHT22;2886;49.722;8.612;2023-04-16T06:32:05;8.70;99.90
5723;DHT22;2886;49.722;8.612;2023-04-16T06:34:30;8.70;99.90
5723;DHT22;2886;49.722;8.612;2023-04-16T06:36:56;8.70;99.90
5723;DHT22;2886;49.722;8.612;2023-04-16T06:39:23;8.70;99.90
5723;DHT22;2886;49.722;8.612;2023-04-16T06:41:48;8.70;99.90
5723;DHT22;2886;49.722;8.612;2023-04-16T06:44:17;8.60;99.90
5723;DHT22;2886;49.722;8.612;2023-04-16T06:46:45;8.60;99.90
5723;DHT22;2886;49.722;8.612;2023-04-16T06:49:11;8.60;99.90
5723;DHT22;2886;49.722;8.612;2023-04-16T06:51:37;8.60;99.90
5723;DHT22;2886;49.722;8.612;2023-04-16T06:54:03;8.60;99.90
5723;DHT22;2886;49.722;8.612;2023-04-16T06:56:28;8.70;99.90
5723;DHT22;2886;49.722;8.612;2023-04-16T06:58:54;8.70;99.90
5723;DHT22;2886;49.722;8.612;2023-04-16T07:01:22;8.70;99.90
5723;DHT22;2886;49.722;8.612;2023-04-16T07:03:47;8.70;99.90
5723;DHT22;2886;49.722;8.612;2023-04-16T07:06:13;8.80;99.90
5723;DHT22;2886;49.722;8.612;2023-04-16T07:08:39;8.80;99.90
5723;DHT22;2886;49.722;8.612;2023-04-16T07:11:04;8.70;99.90
5723;DHT22;2886;49.722;8.612;2023-04-16T07:13:30;8.70;99.90
5723;DHT22;2886;49.722;8.612;2023-04-16T07:15:56;8.70;99.90
5723;DHT22;2886;49.722;8.612;2023-04-16T07:18:22;8.80;99.90
5723;DHT22;2886;49.722;8.612;2023-04-16T07:20:48;8.80;99.90
5723;DHT22;2886;49.722;8.612;2023-04-16T07:23:13;8.80;99.90
5723;DHT22;2886;49.722;8.612;2023-04-16T07:25:39;8.80;99.90
5723;DHT22;2886;49.722;8.612;2023-04-16T07:28:07;8.80;99.90
5723;DHT22;2886;49.722;8.612;2023-04-16T07:30:33;8.70;99.90
5723;DHT22;2886;49.722;8.612;2023-04-16T07:33:02;8.80;99.90
5723;DHT22;2886;49.722;8.612;2023-04-16T07:35:28;8.70;99.90
5723;DHT22;2886;49.722;8.612;2023-04-16T07:37:54;8.70;99.90
5723;DHT22;2886;49.722;8.612;2023-04-16T07:40:19;8.70;99.90
5723;DHT22;2886;49.722;8.612;2023-04-16T07:42:49;8.70;99.90
5723;DHT22;2886;49.722;8.612;2023-04-16T07:45:16;8.70;99.90
5723;DHT22;2886;49.722;8.612;2023-04-16T07:47:42;8.80;99.90
5723;DHT22;2886;49.722;8.612;2023-04-16T07:50:08;8.70;99.90
5723;DHT22;2886;49.722;8.612;2023-04-16T07:52:34;8.60;99.90
5723;DHT22;2886;49.722;8.612;2023-04-16T07:54:59;8.60;99.90
5723;DHT22;2886;49.722;8.612;2023-04-16T07:57:25;8.50;99.90
5723;DHT22;2886;49.722;8.612;2023-04-16T07:59:51;8.50;99.90
5723;DHT22;2886;49.722;8.612;2023-04-16T08:02:16;8.40;99.90
5723;DHT22;2886;49.722;8.612;2023-04-16T08:04:42;8.40;99.90
5723;DHT22;2886;49.722;8.612;2023-04-16T08:07:08;8.40;99.90
5723;DHT22;2886;49.722;8.612;2023-04-16T08:09:34;8.40;99.90
5723;DHT22;2886;49.722;8.612;2023-04-16T08:12:03;8.50;99.90
5723;DHT22;2886;49.722;8.612;2023-04-16T08:14:28;8.50;99.90
5723;DHT22;2886;49.722;8.612;2023-04-16T08:16:54;8.50;99.90
5723;DHT22;2886;49.722;8.612;2023-04-16T08:19:19;8.50;99.90
5723;DHT22;2886;49.722;8.612;2023-04-16T08:21:46;8.50;99.90
5723;DHT22;2886;49.722;8.612;2023-04-16T08:24:11;8.60;99.90
5723;DHT22;2886;49.722;8.612;2023-04-16T08:26:37;8.60;99.90
5723;DHT22;2886;49.722;8.612;2023-04-16T08:29:03;8.60;99.90
5723;DHT22;2886;49.722;8.612;2023-04-16T08:31:28;8.60;99.90
5723;DHT22;2886;49.722;8.612;2023-04-16T08:33:54;8.60;99.90
5723;DHT22;2886;49.722;8.612;2023-04-16T08:36:20;8.60;99.90
5723;DHT22;2886;49.722;8.612;2023-04-16T08:38:46;8.60;99.90
5723;DHT22;2886;49.722;8.612;2023-04-16T08:41:12;8.60;99.90
5723;DHT22;2886;49.722;8.612;2023-04-16T08:43:43;8.60;99.90
5723;DHT22;2886;49.722;8.612;2023-04-16T08:46:10;8.70;99.90
5723;DHT22;2886;49.722;8.612;2023-04-16T08:48:36;8.60;99.90
5723;DHT22;2886;49.722;8.612;2023-04-16T08:51:05;8.70;99.90
5723;DHT22;2886;49.722;8.612;2023-04-16T08:53:52;8.60;99.90
5723;DHT22;2886;49.722;8.612;2023-04-16T08:56:22;8.70;99.90
5723;DHT22;2886;49.722;8.612;2023-04-16T08:58:50;8.70;99.90
5723;DHT22;2886;49.722;8.612;2023-04-16T09:01:18;8.60;99.90
5723;DHT22;2886;49.722;8.612;2023-04-16T09:03:48;8.60;99.90
5723;DHT22;2886;49.722;8.612;2023-04-16T09:06:15;8.70;99.90
5723;DHT22;2886;49.722;8.612;2023-04-16T09:08:43;8.70;99.90
5723;DHT22;2886;49.722;8.612;2023-04-16T09:11:11;8.70;99.90
5723;DHT22;2886;49.722;8.612;2023-04-16T09:13:37;8.70;99.90
5723;DHT22;2886;49.722;8.612;2023-04-16T09:16:03;8.70;99.90
5723;DHT22;2886;49.722;8.612;2023-04-16T09:18:30;8.80;99.90
5723;DHT22;2886;49.722;8.612;2023-04-16T09:20:56;8.80;99.90
5723;DHT22;2886;49.722;8.612;2023-04-16T09:23:22;8.90;99.90
5723;DHT22;2886;49.722;8.612;2023-04-16T09:25:47;8.80;99.90
5723;DHT22;2886;49.722;8.612;2023-04-16T09:28:37;8.80;99.90
5723;DHT22;2886;49.722;8.612;2023-04-16T09:31:13;8.90;99.90
5723;DHT22;2886;49.722;8.612;2023-04-16T09:33:39;9.00;99.90
5723;DHT22;2886;49.722;8.612;2023-04-16T09:36:05;9.00;99.90
5723;DHT22;2886;49.722;8.612;2023-04-16T09:38:45;9.00;99.90
5723;DHT22;2886;49.722;8.612;2023-04-16T09:41:12;9.00;99.90
5723;DHT22;2886;49.722;8.612;2023-04-16T09:46:14;9.00;99.90
5723;DHT22;2886;49.722;8.612;2023-04-16T09:48:40;9.00;99.90
5723;DHT22;2886;49.722;8.612;2023-04-16T09:51:06;9.10;99.90
5723;DHT22;2886;49.722;8.612;2023-04-16T09:53:32;9.10;99.90
5723;DHT22;2886;49.722;8.612;2023-04-16T09:56:03;9.20;99.90
5723;DHT22;2886;49.722;8.612;2023-04-16T09:58:35;9.10;99.90
5723;DHT22;2886;49.722;8.612;2023-04-16T10:01:11;9.10;99.90
5723;DHT22;2886;49.722;8.612;2023-04-16T10:03:38;9.20;99.90
5723;DHT22;2886;49.722;8.612;2023-04-16T10:06:13;9.30;99.90
5723;DHT22;2886;49.722;8.612;2023-04-16T10:08:50;9.30;99.90
5723;DHT22;2886;49.722;8.612;2023-04-16T10:11:18;9.30;99.90
5723;DHT22;2886;49.722;8.612;2023-04-16T10:13:44;9.30;99.90
5723;DHT22;2886;49.722;8.612;2023-04-16T10:16:10;9.30;99.90
5723;DHT22;2886;49.722;8.612;2023-04-16T10:18:37;9.30;99.90
5723;DHT22;2886;49.722;8.612;2023-04-16T10:21:04;9.40;99.90
5723;DHT22;2886;49.722;8.612;2023-04-16T10:23:31;9.40;99.90
5723;DHT22;2886;49.722;8.612;2023-04-16T10:25:58;9.50;99.90
5723;DHT22;2886;49.722;8.612;2023-04-16T10:28:25;9.50;99.90
5723;DHT22;2886;49.722;8.612;2023-04-16T10:30:54;9.50;99.90
5723;DHT22;2886;49.722;8.612;2023-04-16T10:33:22;9.60;99.90
5723;DHT22;2886;49.722;8.612;2023-04-16T10:36:05;9.60;99.90
5723;DHT22;2886;49.722;8.612;2023-04-16T10:38:32;9.70;99.90
5723;DHT22;2886;49.722;8.612;2023-04-16T10:41:02;9.60;99.90
5723;DHT22;2886;49.722;8.612;2023-04-16T10:43:30;9.50;99.90
5723;DHT22;2886;49.722;8.612;2023-04-16T10:45:56;9.60;99.90
5723;DHT22;2886;49.722;8.612;2023-04-16T10:48:23;9.70;99.90
5723;DHT22;2886;49.722;8.612;2023-04-16T10:50:56;9.60;99.90
5723;DHT22;2886;49.722;8.612;2023-04-16T10:53:26;9.60;99.90
5723;DHT22;2886;49.722;8.612;2023-04-16T10:58:30;9.80;99.90
5723;DHT22;2886;49.722;8.612;2023-04-16T11:01:00;9.80;99.90
5723;DHT22;2886;49.722;8.612;2023-04-16T11:03:34;10.00;99.90
5723;DHT22;2886;49.722;8.612;2023-04-16T11:06:29;9.90;99.90
5723;DHT22;2886;49.722;8.612;2023-04-16T11:08:56;10.00;99.90
5723;DHT22;2886;49.722;8.612;2023-04-16T11:11:22;10.00;99.90
5723;DHT22;2886;49.722;8.612;2023-04-16T11:13:48;10.10;99.90
5723;DHT22;2886;49.722;8.612;2023-04-16T11:16:15;10.00;99.90
5723;DHT22;2886;49.722;8.612;2023-04-16T11:18:41;10.10;99.90
5723;DHT22;2886;49.722;8.612;2023-04-16T11:21:10;10.20;99.90
5723;DHT22;2886;49.722;8.612;2023-04-16T11:23:50;10.20;99.90
5723;DHT22;2886;49.722;8.612;2023-04-16T11:26:27;10.30;99.90
5723;DHT22;2886;49.722;8.612;2023-04-16T11:28:54;10.30;99.90
5723;DHT22;2886;49.722;8.612;2023-04-16T11:31:23;10.30;99.90
5723;DHT22;2886;49.722;8.612;2023-04-16T11:33:49;10.30;99.90
5723;DHT22;2886;49.722;8.612;2023-04-16T11:36:15;10.30;99.90
5723;DHT22;2886;49.722;8.612;2023-04-16T11:38:40;10.30;99.90
5723;DHT22;2886;49.722;8.612;2023-04-16T11:41:08;10.30;99.90
5723;DHT22;2886;49.722;8.612;2023-04-16T11:43:34;10.40;99.90
5723;DHT22;2886;49.722;8.612;2023-04-16T11:46:02;10.40;99.90
5723;DHT22;2886;49.722;8.612;2023-04-16T11:48:48;10.50;99.90
5723;DHT22;2886;49.722;8.612;2023-04-16T11:51:13;10.60;99.90
5723;DHT22;2886;49.722;8.612;2023-04-16T11:53:52;10.70;99.90
5723;DHT22;2886;49.722;8.612;2023-04-16T11:56:29;10.70;99.90
5723;DHT22;2886;49.722;8.612;2023-04-16T12:01:46;10.70;99.90
5723;DHT22;2886;49.722;8.612;2023-04-16T12:04:13;10.70;99.90
5723;DHT22;2886;49.722;8.612;2023-04-16T12:10:06;10.80;99.90
5723;DHT22;2886;49.722;8.612;2023-04-16T12:12:32;10.80;99.90
5723;DHT22;2886;49.722;8.612;2023-04-16T12:15:00;10.70;99.90
5723;DHT22;2886;49.722;8.612;2023-04-16T12:17:31;10.60;99.90
5723;DHT22;2886;49.722;8.612;2023-04-16T12:20:02;10.60;99.90
5723;DHT22;2886;49.722;8.612;2023-04-16T12:22:35;10.60;99.90
5723;DHT22;2886;49.722;8.612;2023-04-16T12:25:20;10.70;99.90
5723;DHT22;2886;49.722;8.612;2023-04-16T12:27:50;10.80;99.90
5723;DHT22;2886;49.722;8.612;2023-04-16T12:30:18;10.80;99.90
5723;DHT22;2886;49.722;8.612;2023-04-16T12:32:46;10.80;99.90
5723;DHT22;2886;49.722;8.612;2023-04-16T12:35:12;10.70;99.90
5723;DHT22;2886;49.722;8.612;2023-04-16T12:37:39;10.70;99.90
5723;DHT22;2886;49.722;8.612;2023-04-16T12:40:05;10.80;99.90
5723;DHT22;2886;49.722;8.612;2023-04-16T12:42:32;10.80;99.90
5723;DHT22;2886;49.722;8.612;2023-04-16T12:45:05;10.70;99.90
5723;DHT22;2886;49.722;8.612;2023-04-16T12:47:31;10.60;99.90
5723;DHT22;2886;49.722;8.612;2023-04-16T12:49:57;10.60;99.90
5723;DHT22;2886;49.722;8.612;2023-04-16T12:52:24;10.60;99.90
5723;DHT22;2886;49.722;8.612;2023-04-16T12:54:50;10.50;99.90
5723;DHT22;2886;49.722;8.612;2023-04-16T12:57:16;10.50;99.90
5723;DHT22;2886;49.722;8.612;2023-04-16T12:59:41;10.40;99.90
5723;DHT22;2886;49.722;8.612;2023-04-16T13:02:07;10.40;99.90
5723;DHT22;2886;49.722;8.612;2023-04-16T13:04:33;10.40;99.90
5723;DHT22;2886;49.722;8.612;2023-04-16T13:06:58;10.50;99.90
5723;DHT22;2886;49.722;8.612;2023-04-16T13:09:24;10.50;99.90
5723;DHT22;2886;49.722;8.612;2023-04-16T13:11:51;10.50;99.90
5723;DHT22;2886;49.722;8.612;2023-04-16T13:14:17;10.50;99.90
5723;DHT22;2886;49.722;8.612;2023-04-16T13:16:43;10.50;99.90
5723;DHT22;2886;49.722;8.612;2023-04-16T13:19:09;10.40;99.90
5723;DHT22;2886;49.722;8.612;2023-04-16T13:21:34;10.30;99.90
5723;DHT22;2886;49.722;8.612;2023-04-16T13:24:00;10.40;99.90
5723;DHT22;2886;49.722;8.612;2023-04-16T13:26:26;10.30;99.90
5723;DHT22;2886;49.722;8.612;2023-04-16T13:28:52;10.40;99.90
5723;DHT22;2886;49.722;8.612;2023-04-16T13:31:17;10.40;99.90
5723;DHT22;2886;49.722;8.612;2023-04-16T13:33:45;10.40;99.90
5723;DHT22;2886;49.722;8.612;2023-04-16T13:36:11;10.40;99.90
5723;DHT22;2886;49.722;8.612;2023-04-16T13:38:36;10.40;99.90
5723;DHT22;2886;49.722;8.612;2023-04-16T13:41:03;10.40;99.90
5723;DHT22;2886;49.722;8.612;2023-04-16T13:43:30;10.40;99.90
5723;DHT22;2886;49.722;8.612;2023-04-16T13:45:56;10.40;99.90
5723;DHT22;2886;49.722;8.612;2023-04-16T13:48:22;10.40;99.90
5723;DHT22;2886;49.722;8.612;2023-04-16T13:50:47;10.40;99.90
5723;DHT22;2886;49.722;8.612;2023-04-16T13:53:15;10.40;99.90
5723;DHT22;2886;49.722;8.612;2023-04-16T13:55:41;10.40;99.90
5723;DHT22;2886;49.722;8.612;2023-04-16T13:58:07;10.40;99.90
5723;DHT22;2886;49.722;8.612;2023-04-16T14:00:33;10.50;99.90
5723;DHT22;2886;49.722;8.612;2023-04-16T14:02:59;10.50;99.90
5723;DHT22;2886;49.722;8.612;2023-04-16T14:05:24;10.70;99.90
5723;DHT22;2886;49.722;8.612;2023-04-16T14:07:50;10.70;99.90
5723;DHT22;2886;49.722;8.612;2023-04-16T14:10:16;10.70;99.90
5723;DHT22;2886;49.722;8.612;2023-04-16T14:12:44;10.70;99.90
5723;DHT22;2886;49.722;8.612;2023-04-16T14:15:10;10.70;99.90
5723;DHT22;2886;49.722;8.612;2023-04-16T14:17:45;10.70;99.90
5723;DHT22;2886;49.722;8.612;2023-04-16T14:20:12;10.70;99.90
5723;DHT22;2886;49.722;8.612;2023-04-16T14:22:38;10.70;99.90
5723;DHT22;2886;49.722;8.612;2023-04-16T14:25:04;10.80;99.90
5723;DHT22;2886;49.722;8.612;2023-04-16T14:27:31;10.90;99.90
5723;DHT22;2886;49.722;8.612;2023-04-16T14:29:58;10.90;99.90
5723;DHT22;2886;49.722;8.612;2023-04-16T14:32:25;11.00;99.90
5723;DHT22;2886;49.722;8.612;2023-04-16T14:34:50;11.00;99.90
5723;DHT22;2886;49.722;8.612;2023-04-16T14:37:17;11.00;99.90
5723;DHT22;2886;49.722;8.612;2023-04-16T14:39:42;11.10;99.90
5723;DHT22;2886;49.722;8.612;2023-04-16T14:42:08;11.10;99.90
5723;DHT22;2886;49.722;8.612;2023-04-16T14:44:34;11.10;99.90
5723;DHT22;2886;49.722;8.612;2023-04-16T14:46:59;11.10;99.90
5723;DHT22;2886;49.722;8.612;2023-04-16T14:49:25;11.10;99.90
5723;DHT22;2886;49.722;8.612;2023-04-16T14:51:51;11.10;99.90
5723;DHT22;2886;49.722;8.612;2023-04-16T14:54:18;11.10;99.90
5723;DHT22;2886;49.722;8.612;2023-04-16T14:56:44;11.10;99.90
5723;DHT22;2886;49.722;8.612;2023-04-16T14:59:10;11.30;99.90
5723;DHT22;2886;49.722;8.612;2023-04-16T15:01:36;11.40;99.90
5723;DHT22;2886;49.722;8.612;2023-04-16T15:04:04;11.50;99.90
5723;DHT22;2886;49.722;8.612;2023-04-16T15:06:30;11.50;99.90
5723;DHT22;2886;49.722;8.612;2023-04-16T15:08:56;11.60;99.90
5723;DHT22;2886;49.722;8.612;2023-04-16T15:11:22;11.50;99.90
5723;DHT22;2886;49.722;8.612;2023-04-16T15:13:48;11.50;99.90
5723;DHT22;2886;49.722;8.612;2023-04-16T15:16:13;11.40;99.90
5723;DHT22;2886;49.722;8.612;2023-04-16T15:18:39;11.30;99.90
5723;DHT22;2886;49.722;8.612;2023-04-16T15:21:05;11.30;99.90
5723;DHT22;2886;49.722;8.612;2023-04-16T15:23:31;11.30;99.90
5723;DHT22;2886;49.722;8.612;2023-04-16T15:25:57;11.20;99.90
5723;DHT22;2886;49.722;8.612;2023-04-16T15:28:22;11.20;99.90
5723;DHT22;2886;49.722;8.612;2023-04-16T15:30:49;11.10;99.90
5723;DHT22;2886;49.722;8.612;2023-04-16T15:33:16;11.00;99.90
5723;DHT22;2886;49.722;8.612;2023-04-16T15:35:42;11.00;99.90
5723;DHT22;2886;49.722;8.612;2023-04-16T15:38:08;10.90;99.90
5723;DHT22;2886;49.722;8.612;2023-04-16T15:40:34;10.80;99.90
5723;DHT22;2886;49.722;8.612;2023-04-16T15:43:01;10.80;99.90
5723;DHT22;2886;49.722;8.612;2023-04-16T15:45:26;10.70;99.90
5723;DHT22;2886;49.722;8.612;2023-04-16T15:47:53;10.60;99.90
5723;DHT22;2886;49.722;8.612;2023-04-16T15:50:19;10.60;99.90
5723;DHT22;2886;49.722;8.612;2023-04-16T15:52:46;10.60;99.90
5723;DHT22;2886;49.722;8.612;2023-04-16T15:55:11;10.60;99.90
5723;DHT22;2886;49.722;8.612;2023-04-16T15:57:37;10.60;99.90
5723;DHT22;2886;49.722;8.612;2023-04-16T16:00:03;10.60;99.90
5723;DHT22;2886;49.722;8.612;2023-04-16T16:02:46;10.60;99.90
5723;DHT22;2886;49.722;8.612;2023-04-16T16:05:15;10.50;99.90
5723;DHT22;2886;49.722;8.612;2023-04-16T16:07:41;10.50;99.90
5723;DHT22;2886;49.722;8.612;2023-04-16T16:10:32;10.50;99.90
5723;DHT22;2886;49.722;8.612;2023-04-16T16:12:58;10.50;99.90
5723;DHT22;2886;49.722;8.612;2023-04-16T16:15:30;10.60;99.90
5723;DHT22;2886;49.722;8.612;2023-04-16T16:17:56;10.60;99.90
5723;DHT22;2886;49.722;8.612;2023-04-16T16:20:23;10.60;99.90
5723;DHT22;2886;49.722;8.612;2023-04-16T16:22:49;10.70;99.90
5723;DHT22;2886;49.722;8.612;2023-04-16T16:25:17;10.70;99.90
5723;DHT22;2886;49.722;8.612;2023-04-16T16:27:43;10.70;99.90
5723;DHT22;2886;49.722;8.612;2023-04-16T16:30:09;10.70;99.90
5723;DHT22;2886;49.722;8.612;2023-04-16T16:32:35;10.70;99.90